Latest Weather Observations for Coolangatta

IDN60801

Issued at 12:35 pm EST Friday 18 April 2014 (issued every 30 minutes, with the page automatically refreshed every 10 minutes)

About weather observations | Map of weather stations | Latest weather observations for NSW | Other Formats
Station Details ID: 040717 Name: COOLANGATTA Lat: -28.17 Lon: 153.51 Height: 4.0 m
Data from the previous 72 hours. | See also: Recent months at Coolangatta
Date/Time
EST
Temp
°C
App
Temp
°C
Dew
Point
Rel
Hum
%
Delta-T
°C
Wind Press
QNH
hPa
Press
MSL
hPa
Rain
since 9 am
mm
Dir
 
Spd
km/h
Gust
km/h
Spd
kts
Gust
kts
18/12:30pm 24.7 22.6 12.3 46 7.1 E 15 20 8 11 1014.7 - 0.0
18/12:00pm 24.0 21.4 12.0 47 6.8 E 17 24 9 13 1015.2 1015.1 0.0
18/11:30am 25.1 24.0 12.0 44 7.5 SSE 9 22 5 12 1015.6 - 0.0
18/11:00am 24.6 23.3 12.5 46 6.9 ENE 11 15 6 8 1016.2 - 0.0
18/10:30am 23.9 22.2 11.2 44 7.1 S 11 15 6 8 1016.7 - 0.0
18/10:00am 23.6 21.8 12.0 48 6.6 S 13 17 7 9 1016.9 - 0.0
18/09:30am 23.6 21.9 12.3 49 6.4 S 13 19 7 10 1017.2 - 0.0
18/09:00am 22.9 20.7 12.2 51 6.1 S 15 20 8 11 1017.3 1017.2 0.0
18/08:30am 22.0 20.3 12.5 54 5.4 SSW 13 20 7 11 1017.5 - 0.0
18/08:00am 21.5 20.8 13.2 59 4.8 SSW 9 13 5 7 1017.5 - 0.0
18/07:30am 20.4 20.3 13.4 64 4.0 SSW 6 9 3 5 1017.4 - 0.0
18/07:00am 19.5 19.5 14.3 72 3.0 S 7 11 4 6 1017.2 - 0.0
18/06:30am 18.1 17.7 14.0 77 2.3 SSW 9 13 5 7 1016.9 - 0.0
18/06:00am 17.9 17.5 14.0 78 2.2 SW 9 13 5 7 1016.6 1016.5 0.0
18/05:30am 18.3 17.6 14.4 78 2.2 SW 11 15 6 8 1016.4 - 0.0
18/05:00am 18.2 17.2 14.7 80 2.0 SW 13 20 7 11 1016.5 - 0.0
18/04:30am 16.9 16.6 14.5 86 1.4 SSW 9 11 5 6 1016.5 - 0.0
18/04:00am 16.8 16.6 14.6 87 1.3 S 9 13 5 7 1016.5 - 0.0
18/03:30am 17.6 17.0 14.7 83 1.7 S 11 15 6 8 1016.5 - 0.0
18/03:00am 17.6 17.3 14.3 81 1.9 S 9 13 5 7 1016.5 1016.4 0.0
18/02:30am 18.6 17.9 14.3 76 2.5 SSW 11 17 6 9 1016.5 - 0.0
18/02:00am 18.5 18.1 14.2 76 2.5 S 9 13 5 7 1016.8 - 0.0
18/01:30am 18.6 18.1 13.9 74 2.7 S 9 13 5 7 1016.9 - 0.0
18/01:00am 19.8 19.1 14.2 70 3.2 SSW 11 17 6 9 1017.0 - 0.0
18/12:30am 20.0 19.3 14.4 70 3.3 SSW 11 15 6 8 1017.2 - 0.0
18/12:00am 20.5 19.9 14.6 69 3.4 SW 11 15 6 8 1017.6 1017.5 0.0
 
Date/Time
EST
Temp
°C
App
Temp
°C
Dew
Point
Rel
Hum
%
Delta-T
°C
Wind Press
QNH
hPa
Press
MSL
hPa
Rain
since 9 am
mm
Dir
 
Spd
km/h
Gust
km/h
Spd
kts
Gust
kts
17/11:30pm 20.2 20.0 14.6 70 3.3 SW 9 13 5 7 1017.6 - 0.0
17/11:00pm 20.3 20.2 14.9 71 3.2 WSW 9 13 5 7 1017.7 - 0.0
17/10:30pm 20.4 19.8 14.5 69 3.4 SW 11 15 6 8 1017.7 - 0.0
17/10:00pm 19.7 20.0 15.1 75 2.7 WSW 7 11 4 6 1017.9 - 0.0
17/09:30pm 19.0 19.5 15.5 80 2.1 WSW 7 11 4 6 1017.9 - 0.0
17/09:00pm 19.0 19.1 15.5 80 2.1 WSW 9 13 5 7 1017.7 1017.6 0.0
17/08:30pm 18.9 18.8 15.0 78 2.3 SW 9 11 5 6 1017.5 - 0.0
17/08:00pm 18.3 17.9 15.2 82 1.8 WSW 11 13 6 7 1017.3 - 0.0
17/07:30pm 19.0 18.6 15.3 79 2.2 SW 11 13 6 7 1017.0 - 0.0
17/07:00pm 18.9 18.3 14.6 76 2.5 WSW 11 11 6 6 1016.7 - 0.0
17/06:30pm 20.1 20.5 14.7 71 3.2 SSW 6 7 3 4 1016.4 - 0.0
17/06:00pm 20.4 19.8 14.7 70 3.3 S 11 15 6 8 1016.0 1015.9 0.0
17/05:30pm 21.6 20.3 14.7 65 4.1 SSE 15 20 8 11 1015.8 - 0.0
17/05:00pm 22.2 20.1 14.6 62 4.5 SSE 19 26 10 14 1015.6 - 0.0
17/04:30pm 23.2 20.5 14.5 58 5.1 SE 22 30 12 16 1015.2 - 0.0
17/04:00pm 24.0 21.2 14.4 55 5.7 SE 22 30 12 16 1015.0 - 0.0
17/03:30pm 24.7 21.9 15.3 56 5.7 SE 24 32 13 17 1014.8 - 0.0
17/03:00pm 25.6 22.3 11.0 40 8.2 SSE 19 24 10 13 1014.9 1014.8 0.0
17/02:30pm 26.5 23.5 12.5 41 8.1 SSE 20 26 11 14 1014.9 - 0.0
17/02:00pm 26.3 24.2 11.2 38 8.6 WSW 13 19 7 10 1015.3 - 0.0
17/01:30pm 26.6 23.5 12.3 41 8.3 SSE 20 28 11 15 1015.6 - 0.0
17/01:00pm 26.0 23.6 11.4 40 8.3 S 15 24 8 13 1015.9 - 0.0
17/12:30pm 25.8 22.8 10.8 39 8.4 SW 17 26 9 14 1016.2 - 0.0
17/12:00pm 25.5 22.7 11.3 41 8.0 S 17 24 9 13 1016.6 1016.5 0.0
17/11:30am 25.0 22.9 11.2 42 7.8 SW 13 20 7 11 1017.1 - 0.0
17/11:00am 24.6 22.1 12.2 46 7.1 SSW 17 22 9 12 1017.7 - 0.0
17/10:30am 24.3 21.8 12.3 47 6.9 SW 17 28 9 15 1018.1 - 0.0
17/10:00am 24.1 21.2 12.4 48 6.7 SW 19 32 10 17 1018.1 - 0.0
17/09:30am 22.9 19.6 11.0 47 6.6 SSW 19 30 10 16 1018.2 - 0.0
17/09:00am 22.9 20.0 12.2 51 6.1 SSW 19 30 10 16 1018.2 1018.1 0.2
17/08:30am 22.3 20.5 12.0 52 5.8 SW 13 20 7 11 1018.4 - 0.2
17/08:00am 21.5 19.6 11.8 54 5.4 SSW 13 17 7 9 1018.3 - 0.2
17/07:30am 20.5 18.5 11.4 56 5.0 SW 13 19 7 10 1018.0 - 0.2
17/07:00am 19.5 17.9 11.5 60 4.4 SSW 11 17 6 9 1017.8 - 0.2
17/06:30am 18.4 17.2 11.5 64 3.8 SSW 9 13 5 7 1017.4 - 0.2
17/06:00am 18.7 15.6 11.5 63 3.9 SSW 19 28 10 15 1017.0 1016.9 0.2
17/05:30am 17.4 16.2 11.7 69 3.1 SW 9 13 5 7 1016.8 - 0.2
17/05:00am 17.2 16.4 11.7 70 3.0 WSW 7 11 4 6 1016.5 - 0.2
17/04:30am 17.7 16.2 11.9 69 3.2 WSW 11 13 6 7 1016.3 - 0.2
17/04:00am 18.6 16.3 11.7 64 3.8 SW 15 20 8 11 1016.1 - 0.2
17/03:30am 19.2 16.5 11.7 62 4.1 SSW 17 24 9 13 1015.9 - 0.2
17/03:00am 18.6 16.7 11.9 65 3.7 SSW 13 20 7 11 1016.0 1015.9 0.2
17/02:30am 18.9 17.0 11.9 64 3.9 SSW 13 20 7 11 1015.9 - 0.2
17/02:00am 19.2 16.8 12.5 65 3.7 SW 17 24 9 13 1015.8 - 0.2
17/01:30am 19.4 17.1 12.9 66 3.7 SSW 17 24 9 13 1015.8 - 0.2
17/01:00am 19.8 17.1 12.8 64 3.9 SSW 19 28 10 15 1016.2 - 0.2
17/12:30am 19.9 17.6 13.1 65 3.9 SSW 17 24 9 13 1016.3 - 0.2
17/12:00am 20.0 17.5 13.5 66 3.7 SSW 19 28 10 15 1016.4 1016.3 0.2
 
Date/Time
EST
Temp
°C
App
Temp
°C
Dew
Point
Rel
Hum
%
Delta-T
°C
Wind Press
QNH
hPa
Press
MSL
hPa
Rain
since 9 am
mm
Dir
 
Spd
km/h
Gust
km/h
Spd
kts
Gust
kts
16/11:30pm 20.4 17.4 13.8 66 3.8 SSW 22 32 12 17 1016.5 - 0.2
16/11:00pm 20.6 18.1 14.0 66 3.8 SSW 20 30 11 16 1016.6 - 0.2
16/10:30pm 20.3 18.0 14.2 68 3.5 SSW 19 26 10 14 1016.7 - 0.2
16/10:00pm 20.3 18.1 14.4 69 3.4 S 19 26 10 14 1016.7 - 0.2
16/09:30pm 20.3 19.2 14.4 69 3.4 SSW 13 22 7 12 1016.7 - 0.2
16/09:00pm 20.3 19.2 14.2 68 3.5 SW 13 20 7 11 1016.6 1016.5 0.2
16/08:30pm 19.9 19.2 14.3 70 3.2 SSW 11 17 6 9 1016.3 - 0.2
16/08:00pm 20.2 19.5 14.3 69 3.4 SSW 11 19 6 10 1016.2 - 0.2
16/07:30pm 20.2 19.1 14.3 69 3.4 S 13 20 7 11 1015.8 - 0.2
16/07:00pm 20.5 18.2 14.2 67 3.7 S 19 26 10 14 1015.5 - 0.2
16/06:30pm 21.0 18.4 13.7 63 4.2 S 20 28 11 15 1015.1 - 0.2
16/06:00pm 21.1 18.6 14.0 64 4.1 S 20 28 11 15 1014.8 1014.7 0.2
16/05:30pm 21.5 19.3 14.4 64 4.2 SSE 19 28 10 15 1014.7 - 0.2
16/05:00pm 22.1 19.6 15.2 65 4.1 SSE 22 33 12 18 1014.6 - 0.2
16/04:30pm 23.2 20.2 15.8 63 4.5 SE 26 35 14 19 1014.3 - 0.2
16/04:00pm 24.7 22.9 13.3 49 6.6 S 15 20 8 11 1013.9 - 0.2
16/03:30pm 24.9 22.3 13.1 48 6.9 SSE 19 26 10 14 1013.8 - 0.2
16/03:00pm 25.3 23.1 13.2 47 7.1 S 17 22 9 12 1013.9 1013.8 0.2
16/02:30pm 25.6 23.0 13.1 46 7.3 S 19 30 10 16 1014.0 - 0.2
16/02:00pm 25.6 22.3 12.8 45 7.4 SW 22 32 12 17 1014.2 - 0.2
16/01:30pm 24.6 21.5 12.2 46 7.1 S 20 30 11 16 1014.3 - 0.2
16/01:00pm 25.6 23.2 12.8 45 7.4 SW 17 30 9 16 1014.4 - 0.2
16/12:30pm 24.9 21.9 12.5 46 7.1 SSW 20 26 11 14 1014.8 - 0.2
16/12:00pm 25.1 22.5 13.3 48 6.9 SSW 19 28 10 15 1015.2 1015.1 0.2
16/11:30am 24.5 22.3 13.4 50 6.5 SSW 17 30 9 16 1015.6 - 0.2
16/11:00am 24.1 21.5 13.3 51 6.3 SSW 19 26 10 14 1016.1 - 0.2
16/10:30am 23.6 21.9 14.6 57 5.3 SSW 17 22 9 12 1016.5 - 0.2
16/10:00am 22.8 19.9 14.1 58 5.1 S 22 30 12 16 1016.7 - 0.0
16/09:30am 22.4 20.4 14.0 59 4.9 SSW 17 28 9 15 1016.8 - 0.0
16/09:00am 21.9 20.0 14.3 62 4.4 SSW 17 20 9 11 1016.7 1016.6 0.2
16/08:30am 21.2 19.1 13.6 62 4.4 SW 17 26 9 14 1016.7 - 0.2
16/08:00am 20.3 18.2 13.5 65 3.9 SSW 17 24 9 13 1016.6 - 0.2
16/07:30am 19.6 16.8 13.3 67 3.6 SSW 20 30 11 16 1016.3 - 0.2
16/07:00am 19.1 16.3 13.3 69 3.3 SSW 20 28 11 15 1015.8 - 0.2
16/06:30am 18.4 15.5 13.0 71 3.0 SSW 20 32 11 17 1015.5 - 0.2
16/06:00am 18.4 15.2 13.0 71 3.0 SSW 22 32 12 17 1015.2 1015.1 0.2
16/05:30am 18.1 15.8 13.0 72 2.9 SSW 17 28 9 15 1015.1 - 0.2
16/05:00am 18.2 16.3 12.9 71 3.0 SSW 15 24 8 13 1014.9 - 0.2
16/04:30am 18.3 15.5 12.7 70 3.1 SSW 19 28 10 15 1015.1 - 0.2
16/04:00am 18.5 16.4 12.5 68 3.3 SSW 15 28 8 15 1015.1 - 0.2
16/03:30am 18.4 15.8 11.9 66 3.6 SW 17 24 9 13 1014.9 - 0.2
16/03:00am 18.8 16.1 11.6 63 4.0 SW 17 28 9 15 1014.8 1014.7 0.2
16/02:30am 18.6 15.8 11.2 62 4.0 SW 17 24 9 13 1014.8 - 0.2
16/02:00am 18.5 16.4 11.3 63 3.9 SW 13 20 7 11 1014.7 - 0.2
16/01:30am 18.9 16.1 11.5 62 4.1 SSW 17 24 9 13 1014.7 - 0.2
16/01:00am 18.8 16.2 12.1 65 3.7 SW 17 22 9 12 1014.9 - 0.2
16/12:30am 18.9 16.5 12.6 67 3.5 SW 17 24 9 13 1015.4 - 0.2
16/12:00am 18.9 17.0 13.1 69 3.3 SW 15 22 8 12 1015.4 1015.3 0.2
 
Date/Time
EST
Temp
°C
App
Temp
°C
Dew
Point
Rel
Hum
%
Delta-T
°C
Wind Press
QNH
hPa
Press
MSL
hPa
Rain
since 9 am
mm
Dir
 
Spd
km/h
Gust
km/h
Spd
kts
Gust
kts
15/11:30pm 18.9 17.0 13.1 69 3.3 SSW 15 20 8 11 1015.4 - 0.2
15/11:00pm 18.7 17.7 13.3 71 3.1 SW 11 17 6 9 1015.7 - 0.2
15/10:30pm 19.4 17.7 13.6 69 3.3 SSW 15 24 8 13 1016.0 - 0.2
15/10:00pm 19.2 18.0 14.0 72 3.0 SW 13 20 7 11 1016.1 - 0.2
15/09:30pm 18.7 18.3 14.2 75 2.6 SW 9 15 5 8 1016.2 - 0.2
15/09:00pm 19.0 17.9 14.3 74 2.7 SW 13 17 7 9 1016.2 1016.1 0.2
15/08:30pm 19.2 18.2 14.5 74 2.7 SW 13 19 7 10 1016.4 - 0.2
15/08:00pm 19.0 17.9 14.3 74 2.7 SW 13 17 7 9 1016.5 - 0.2
15/07:30pm 19.5 18.3 14.1 71 3.1 SW 13 20 7 11 1016.3 - 0.2
15/07:00pm 19.6 17.8 14.4 72 3.0 S 17 28 9 15 1015.9 - 0.2
15/06:30pm 19.5 17.2 14.1 71 3.1 SSW 19 30 10 16 1015.8 - 0.2
15/06:00pm 19.6 18.2 14.4 72 3.0 S 15 24 8 13 1015.5 1015.4 0.2
15/05:30pm 20.0 17.6 14.4 70 3.3 S 20 33 11 18 1015.0 - 0.2
15/05:00pm 21.0 18.0 14.9 68 3.6 SSE 24 35 13 19 1015.0 - 0.2
15/04:30pm 21.8 20.2 14.9 65 4.1 S 17 24 9 13 1014.9 - 0.2
15/04:00pm 21.9 20.5 15.5 67 3.8 S 17 24 9 13 1014.8 - 0.2
15/03:30pm 21.1 19.8 15.9 72 3.1 SSW 17 26 9 14 1014.8 - 0.2
15/03:00pm 19.8 17.7 16.3 80 2.1 SSW 22 33 12 18 1014.7 1014.6 0.2
15/02:30pm 20.9 19.3 16.1 74 2.9 S 19 26 10 14 1014.6 - 0.2
15/02:00pm 23.0 19.6 14.8 60 4.9 S 26 41 14 22 1014.4 - 0.0
15/01:30pm 23.0 19.4 14.3 58 5.1 S 26 41 14 22 1014.5 - 0.0
15/01:00pm 23.9 20.9 15.9 61 4.8 S 26 37 14 20 1014.7 - 0.0

Other Formats:

Comma delimited format used in spreadsheet applications
http://www.bom.gov.au/fwo/IDN60801/IDN60801.94592.axf

JavaScript Object Notation format (JSON) in row-major order
http://www.bom.gov.au/fwo/IDN60801/IDN60801.94592.json